Bremerton, WA (98310)

5:23 AM PDT on September 27, 2016 (GMT -0700)
| | Change Station

Elev -9999 ft 0.00 °N, 0.00 °E | Updated

Rain
Rain
58 °F
Feels Like 58 °F
N
4
Wind Variable Wind from NE
Gusts mph

Today
High -- | Low -- °F
--% Chance of Precip.
Yesterday
High -- | Low -- °F
Precip. -- in
Pressure 30.18 in
Visibility 10.0 miles
Clouds Overcast 1500 ft
Dew Point 54 °F
Humidity 87%
Rainfall --
Snow Depth Not available.
7:04 AM 6:56 PM
Waning Crescent, 12% visible
METAR KPWT 271215Z AUTO 03003KT 10SM OVC015 16/14 A3018 RMK AO1
Pressure 30.18 in
Visibility 10.0 miles
Clouds Overcast 1500 ft
Dew Point 54 °F
Humidity 87%
Rainfall --
Snow Depth Not available.
7:04 AM 6:56 PM
Waning Crescent, 12% visible
METAR KPWT 271215Z AUTO 03003KT 10SM OVC015 16/14 A3018 RMK AO1

10-Day Weather Forecast

Almanac

Astronomy

Sep. 27, 2016 Rise Set
Actual Time
Civil Twilight
Nautical Twilight
Astronomical Twilight
Moon
Length of Visible Light
Length of Day
Tomorrow will be .
, % of the Moon is Illuminated

Today's Extremes

State Highs State Lows

Community

WunderPhotos

Upload Photos

1,942,069 photos uploaded!

WunderBlog® & News

Nearby

Air Quality

  Air Quality AQ Index Pollutant
Not available.

Snow Depth

Station Depth Elevation

Earthquake Activity

City Distance Mag. Time & Date
Minimum magnitude displayed is 2.5.

Coastal Water Temperatures

Place Temperature

Stations

Nearby Weather Stations

Station Location Temp. Windchill Dew Point Humidity Wind Precip. Elev Updated Type
                   

Watches & Warnings

There are currently no watches in effect.